Caldwell, ID

7:14 AM MST on February 22, 2018 (GMT -0700)
Rothbury | | Change Station
Active Advisory: Winter Weather Advisory

Elev 2444 ft 43.64 °N, 116.70 °W | Updated 13 seconds ago

Snow
Snow
24.3 °F
Feels Like 20 °F
N
3.7
Wind Variable Wind from West

Today
High -- | Low -- °F
--% Chance of Precip.
Yesterday
High -- | Low -- °F
Precip. -- in
Pressure 30.04 in
Visibility 4.0 miles
Clouds Mostly Cloudy 2800 ft
Overcast 3700 ft
Windchill 20 °F
Dew Point -12 °F
Humidity 19%
Rainfall 0.00 in
Snow Depth Not available.
7:34 AM 6:26 PM
Waxing Crescent, 42% visible
METAR KEUL 221356Z AUTO 28009KT 4SM -SN BR BKN028 OVC037 M04/M05 A2997 RMK AO2 UPB02E12SNE02B12 SLP173 P0000 T10391050 FZRANO
Pressure 30.04 in
Visibility 4.0 miles
Clouds Mostly Cloudy 2800 ft
Overcast 3700 ft
Windchill 20 °F
Dew Point -12 °F
Humidity 19%
Rainfall 0.00 in
Snow Depth Not available.
7:34 AM 6:26 PM
Waxing Crescent, 42% visible
METAR KEUL 221356Z AUTO 28009KT 4SM -SN BR BKN028 OVC037 M04/M05 A2997 RMK AO2 UPB02E12SNE02B12 SLP173 P0000 T10391050 FZRANO

Get Your Daily Forecast Email!

Thanks for signing up!

Be on the lookout for a verification email in your inbox.

You'll start receiving severe weather alerts in your inbox..

×

10-Day Weather Forecast

Almanac

Astronomy

Feb. 22, 2018 Rise Set
Actual Time
Civil Twilight
Nautical Twilight
Astronomical Twilight
Moon
Length of Visible Light
Length of Day
Tomorrow will be .
, % of the Moon is Illuminated

Today's Extremes

State Highs State Lows

Community

WunderPhotos

Category 6

Welcome to Category 6. This is the collective home for Weather Underground's featured writeups by Dr. Jeff Masters (right), Bob Henson (left), Chris Burt, and other regular contributors.

Nearby

Air Quality

  Air Quality AQ Index Pollutant
Not available.

Snow Depth

Station Depth Elevation

Earthquake Activity

City Distance Mag. Time & Date
Minimum magnitude displayed is 2.5.

Coastal Water Temperatures

Place Temperature

Stations

Nearby Weather Stations

Station Location Temp. Windchill Dew Point Humidity Wind Precip. Elev Updated Type
                   

Watches & Warnings

Winter Weather Advisory
Issued: 2:16 AM MST Feb. 22, 2018 – National Weather Service

... Winter Weather Advisory in effect until noon MST today...

* what... snow occurring. Plan on slippery and snow-covered roads,
including during the morning commute. Total snow accumulation of
2 to 3 inches, with localized amounts up to 5 inches, are
expected.

* Where... lower Treasure valley ID, upper Treasure valley and
upper Weiser river zones.

* When... until noon MST today.

* Additional details... be prepared for reduced visibilities at
times.

Precautionary/preparedness actions...

A Winter Weather Advisory for snow means periods of snow will
cause primarily travel difficulties. Be prepared for snow covered
roads and limited visibilities, and use caution while driving.
The latest Road conditions can be obtained by calling 5 1 1.